Airfield :
LOGIN :

Register | Disclaimer

   EN    FR    IT 

 










Legend :    VFR   Marginal VFR   IFR   Intensive IFR   Very Intensive IFR
Visi :
Ceiling :
>= 8 km
>= 3000ft
5 to 8 km
1000 to 3000 ft
1500m to 5 km
500 to 1000 ft
800 to 1500m
200 to 500 ft
< 800m
< 200 ft
Symbols :   Thunderstorms  Fog  Heavy snow  Heavy precipitations  Wind > 20 kt
SIGMETs :     Misc.  Thunderstorms  Icing  Turbulence  Mountain Waves  Volcanic Ashes






- Airport Elevation : 939 ft


LKKB - Kbely Air Base

CURRENT METAR :
  • 120900Z 05003KT 360V160 CAVOK 26/17 Q1020 NOSIG

EXPIRED METARs :
  • 120830Z 08003KT 020V130 CAVOK 25/16 Q1020 NOSIG
  • 120800Z 08005KT 040V110 CAVOK 24/16 Q1020 NOSIG
  • 120730Z 08006KT 050V110 CAVOK 23/17 Q1020 NOSIG
  • 120700Z 09006KT 060V130 CAVOK 22/17 Q1020 NOSIG
  • 120630Z 07004KT CAVOK 22/17 Q1020 NOSIG

TAF TAF LKKB
Valid from the 12 at 06:00 until the 13 at 06:00 UTC


120500Z 1206/1306 VRB02KT CAVOK
BECMG 1209/1211 09006KT SCT040
PROB30
TEMPO 1214/1218 6000 SHRA BKN040TCU
BECMG 1215/1217 CAVOK



MET'MAP, your aeronautical weather chart ! - Copyright ORBIFLY December 2007 - Disclaimer

ORBIFLY MET'MAP TEAM :

Programming & Development : Alexandra Zaïnal
Concept & original design : Baudouin d'Aumeries
Assistance for programming : Marc-Olivier Méhu
Technical & hardware support : Manuel Goepfert

Contact : metmap@orbifly.com




SOURCES & CREDITS :

   NOAA